Time;durP1;ratioP1;P1;durP2;ratioP2;P2;SDS_P1;SDS_P2;PMS_P1;PMS_P2;Temp;Humidity;BMP_temperature;BMP_pressure;BME280_temperature;BME280_humidity;BME280_pressure;Samples;Min_cycle;Max_cycle;Signal;HPM_P1;HPM_P2
2022/09/09 00:01:44;;;;;;;11.98;9.45;;;;;;;20.38;nan;95250.50;5012527;28;20233;-64
2022/09/09 00:04:21;;;;;;;8.75;7.97;;;;;;;20.32;nan;95251.69;5011403;28;20677;-64
2022/09/09 00:06:57;;;;;;;8.98;8.10;;;;;;;20.14;nan;95247.81;5010835;28;20250;-61
2022/09/09 00:09:28;;;;;;;9.95;9.00;;;;;;;19.48;nan;95242.81;5013281;28;20210;-62
2022/09/09 00:12:03;;;;;;;9.43;8.38;;;;;;;19.31;nan;95254.19;5013817;28;20226;-64
2022/09/09 00:14:38;;;;;;;13.45;8.90;;;;;;;19.31;nan;95252.44;5012042;28;20284;-61
2022/09/09 00:17:10;;;;;;;20.45;9.48;;;;;;;19.40;nan;95255.34;5015273;28;20738;-63
2022/09/09 00:19:50;;;;;;;9.27;8.57;;;;;;;19.03;nan;95243.09;5014478;28;20598;-63
2022/09/09 00:22:20;;;;;;;10.02;8.85;;;;;;;19.08;nan;95239.38;5017017;28;20218;-64
2022/09/09 00:24:50;;;;;;;10.48;9.48;;;;;;;18.80;nan;95224.88;5017379;28;20283;-62
2022/09/09 00:27:28;;;;;;;9.30;8.45;;;;;;;18.78;nan;95222.41;5015535;28;20252;-63
2022/09/09 00:29:59;;;;;;;9.70;8.90;;;;;;;18.95;nan;95222.16;5011792;28;20198;-63
2022/09/09 00:32:31;;;;;;;9.05;8.35;;;;;;;19.14;nan;95228.69;5015877;28;20272;-62
2022/09/09 00:35:02;;;;;;;10.00;8.85;;;;;;;19.18;nan;95219.84;5016271;28;20203;-64
2022/09/09 00:37:34;;;;;;;10.40;9.32;;;;;;;18.56;nan;95212.56;5012553;28;20209;-61
2022/09/09 00:40:12;;;;;;;10.60;9.57;;;;;;;18.32;nan;95204.63;5012220;28;20279;-61
2022/09/09 00:42:42;;;;;;;10.70;9.80;;;;;;;18.40;nan;95205.91;5013155;28;20287;-62
2022/09/09 00:45:26;;;;;;;9.98;9.18;;;;;;;18.69;nan;95207.53;5014634;28;20206;-63
2022/09/09 00:47:54;;;;;;;11.80;10.25;;;;;;;19.09;nan;95213.53;5012406;28;20233;-63
2022/09/09 00:50:44;;;;;;;11.68;9.82;;;;;;;19.28;nan;95215.75;5014152;28;20285;-64
2022/09/09 00:53:32;;;;;;;13.02;10.40;;;;;;;19.23;nan;95212.66;5014870;28;20205;-63
2022/09/09 00:56:12;;;;;;;10.55;9.43;;;;;;;19.31;nan;95210.38;5009089;28;21485;-61
2022/09/09 00:58:38;;;;;;;13.65;10.05;;;;;;;19.42;nan;95207.94;5013334;28;20211;-62
2022/09/09 01:01:09;;;;;;;9.80;8.93;;;;;;;19.54;nan;95212.34;5009506;28;20239;-63
2022/09/09 01:03:38;;;;;;;12.60;9.07;;;;;;;19.74;nan;95213.56;5014883;28;20576;-64
2022/09/09 01:06:15;;;;;;;9.93;9.13;;;;;;;19.85;nan;95218.00;5015506;28;20226;-62
2022/09/09 01:09:12;;;;;;;13.23;10.07;;;;;;;19.43;nan;95219.91;5016695;28;20202;-63
2022/09/09 01:11:51;;;;;;;18.00;10.45;;;;;;;19.12;nan;95210.75;5014559;28;20738;-63
2022/09/09 01:14:31;;;;;;;13.70;10.98;;;;;;;18.99;nan;95221.03;5015576;28;20207;-63
2022/09/09 01:17:05;;;;;;;12.05;10.07;;;;;;;19.23;nan;95220.38;5013421;28;21126;-64
2022/09/09 01:19:41;;;;;;;10.05;9.15;;;;;;;19.28;nan;95218.34;5014267;28;20209;-63
2022/09/09 01:22:17;;;;;;;11.68;10.48;;;;;;;19.23;nan;95208.31;5015425;28;20609;-65
2022/09/09 01:25:29;;;;;;;9.40;8.57;;;;;;;19.30;nan;95206.97;5016316;28;20206;-64
2022/09/09 01:28:01;;;;;;;11.45;10.45;;;;;;;19.25;nan;95211.63;4999289;28;20234;-63
2022/09/09 01:30:29;;;;;;;10.60;9.60;;;;;;;19.34;nan;95210.19;5014274;28;20203;-64
2022/09/09 01:33:00;;;;;;;9.65;8.70;;;;;;;19.47;nan;95207.66;5013872;28;20321;-63
2022/09/09 01:35:46;;;;;;;10.43;9.38;;;;;;;19.73;nan;95221.41;5013602;28;20207;-62
2022/09/09 01:38:13;;;;;;;10.88;9.88;;;;;;;19.63;nan;95232.31;5013389;28;20714;-64
2022/09/09 01:40:40;;;;;;;10.70;9.52;;;;;;;19.46;nan;95219.69;5013701;28;20211;-64
2022/09/09 01:43:09;;;;;;;10.60;9.52;;;;;;;19.48;nan;95233.31;5011677;28;20222;-64
2022/09/09 01:45:36;;;;;;;11.40;10.07;;;;;;;19.24;nan;95229.75;5012365;28;20322;-63
2022/09/09 01:48:03;;;;;;;10.13;8.70;;;;;;;19.24;nan;95229.75;5011956;28;20231;-65
2022/09/09 01:50:30;;;;;;;10.73;9.57;;;;;;;19.40;nan;95229.56;5014520;28;20202;-64
2022/09/09 01:52:59;;;;;;;14.05;9.73;;;;;;;19.61;nan;95234.19;5012089;28;20215;-63
2022/09/09 01:55:31;;;;;;;9.52;8.82;;;;;;;19.65;nan;95238.22;5013005;28;20629;-65
2022/09/09 01:58:17;;;;;;;10.77;9.70;;;;;;;19.52;nan;95232.22;5012388;28;20203;-64
2022/09/09 02:00:54;;;;;;;11.25;10.07;;;;;;;19.44;nan;95226.72;5012610;28;20255;-63
2022/09/09 02:03:26;;;;;;;10.48;9.45;;;;;;;19.57;nan;95225.00;5013958;28;20214;-65
2022/09/09 02:06:01;;;;;;;10.65;9.65;;;;;;;19.73;nan;95234.31;5013069;28;20300;-64
2022/09/09 02:08:35;;;;;;;10.48;9.48;;;;;;;19.87;nan;95223.88;5013053;28;20234;-64
2022/09/09 02:11:06;;;;;;;11.93;9.85;;;;;;;19.60;nan;95224.78;5013963;28;20234;-61
2022/09/09 02:13:37;;;;;;;10.93;9.82;;;;;;;19.20;nan;95212.84;5012729;28;20206;-63
2022/09/09 02:16:08;;;;;;;11.57;8.77;;;;;;;18.79;nan;95213.75;5013865;28;20288;-62
2022/09/09 02:18:40;;;;;;;9.90;9.10;;;;;;;18.74;nan;95210.66;5013955;28;20552;-64
2022/09/09 02:21:08;;;;;;;11.40;9.63;;;;;;;19.00;nan;95221.88;5013775;28;20713;-63
2022/09/09 02:23:36;;;;;;;10.25;9.38;;;;;;;18.68;nan;95214.44;5013696;28;20226;-66
2022/09/09 02:26:05;;;;;;;10.70;9.75;;;;;;;18.62;nan;95221.69;5013083;28;20199;-64
2022/09/09 02:28:34;;;;;;;9.77;8.88;;;;;;;19.19;nan;95226.66;5011635;28;20226;-64
2022/09/09 02:31:02;;;;;;;9.63;8.40;;;;;;;19.36;nan;95223.78;5010797;28;20299;-62
2022/09/09 02:33:35;;;;;;;10.07;9.23;;;;;;;19.09;nan;95213.53;5011030;28;20231;-64
2022/09/09 02:36:03;;;;;;;13.45;10.02;;;;;;;19.06;nan;95228.34;5012823;28;20211;-65
2022/09/09 02:38:35;;;;;;;8.95;8.20;;;;;;;19.40;nan;95234.75;5012720;28;20211;-63
2022/09/09 02:41:03;;;;;;;10.55;8.95;;;;;;;19.37;nan;95241.75;5010181;28;20625;-66
2022/09/09 02:43:32;;;;;;;12.00;9.73;;;;;;;19.48;nan;95233.31;5013112;28;20202;-64
2022/09/09 02:46:11;;;;;;;10.00;9.00;;;;;;;19.52;nan;95237.38;5012428;28;20234;-64
2022/09/09 02:48:49;;;;;;;10.30;9.25;;;;;;;19.48;nan;95238.47;5012893;28;20227;-64
2022/09/09 02:51:24;;;;;;;9.90;9.18;;;;;;;19.35;nan;95232.44;5009993;28;20603;-64
2022/09/09 02:54:01;;;;;;;9.55;8.85;;;;;;;19.38;nan;95232.25;5012676;28;20203;-62
2022/09/09 02:56:33;;;;;;;10.93;9.88;;;;;;;19.20;nan;95236.03;5013528;28;20527;-64
2022/09/09 02:59:00;;;;;;;9.63;8.77;;;;;;;19.22;nan;95236.75;5011945;28;20300;-64
2022/09/09 03:01:28;;;;;;;9.20;8.40;;;;;;;19.13;nan;95232.19;5010964;28;20303;-66
2022/09/09 03:03:55;;;;;;;9.95;9.15;;;;;;;18.78;nan;95242.19;5012554;28;20190;-64
2022/09/09 03:06:22;;;;;;;9.98;9.02;;;;;;;18.71;nan;95236.59;5012047;28;20246;-66
2022/09/09 03:08:49;;;;;;;9.52;8.93;;;;;;;18.69;nan;95233.28;5016568;28;20239;-63
2022/09/09 03:11:16;;;;;;;10.45;9.23;;;;;;;18.85;nan;95235.69;5015693;28;20879;-63
2022/09/09 03:13:43;;;;;;;9.57;8.45;;;;;;;19.11;nan;95231.47;5015983;28;20559;-64
2022/09/09 03:16:10;;;;;;;9.35;8.65;;;;;;;19.22;nan;95237.59;5017305;28;20260;-63
2022/09/09 03:18:38;;;;;;;11.13;9.38;;;;;;;18.94;nan;95229.97;5017533;28;20648;-64
2022/09/09 03:21:05;;;;;;;10.43;9.45;;;;;;;18.85;nan;95227.97;5014488;28;20225;-64
2022/09/09 03:23:32;;;;;;;9.50;8.70;;;;;;;18.92;nan;95227.50;5017526;28;20264;-64
2022/09/09 03:25:58;;;;;;;10.02;9.00;;;;;;;19.04;nan;95223.31;5018544;28;20271;-64
2022/09/09 03:28:30;;;;;;;11.00;10.00;;;;;;;19.25;nan;95227.09;5016607;28;20615;-64
2022/09/09 03:31:00;;;;;;;10.30;9.45;;;;;;;19.34;nan;95225.66;5014956;28;20205;-63
2022/09/09 03:33:27;;;;;;;10.57;9.55;;;;;;;19.27;nan;95227.00;5018599;28;20765;-63
2022/09/09 03:35:56;;;;;;;10.57;8.95;;;;;;;18.90;nan;95226.75;5018304;28;20290;-63
2022/09/09 03:38:23;;;;;;;10.50;9.65;;;;;;;18.80;nan;95230.88;5017228;28;21179;-64
2022/09/09 03:40:55;;;;;;;20.48;10.38;;;;;;;18.47;nan;95227.78;5017992;28;20755;-64
2022/09/09 03:43:22;;;;;;;10.30;9.30;;;;;;;18.43;nan;95222.00;5016946;28;20333;-65
2022/09/09 03:45:49;;;;;;;10.88;9.77;;;;;;;18.24;nan;95232.59;5016229;28;20296;-63
2022/09/09 03:48:16;;;;;;;11.25;10.13;;;;;;;17.97;nan;95235.06;5017191;28;20237;-63
2022/09/09 03:50:45;;;;;;;10.95;9.82;;;;;;;17.66;nan;95236.06;5016445;28;20343;-62
2022/09/09 03:53:15;;;;;;;12.10;9.98;;;;;;;17.90;nan;95238.09;5014968;28;20241;-62
2022/09/09 03:55:45;;;;;;;10.93;9.73;;;;;;;18.44;nan;95238.25;5016452;28;20203;-64
2022/09/09 03:58:13;;;;;;;10.23;9.20;;;;;;;18.78;nan;95240.44;5015823;28;20368;-63
2022/09/09 04:00:42;;;;;;;15.75;14.07;;;;;;;18.33;nan;95236.31;5015498;28;20731;-65
2022/09/09 04:03:09;;;;;;;16.05;11.50;;;;;;;18.21;nan;95237.91;5016055;28;20702;-64
2022/09/09 04:05:39;;;;;;;20.15;14.13;;;;;;;18.17;nan;95246.72;5015210;28;20393;-64
2022/09/09 04:08:06;;;;;;;11.85;10.75;;;;;;;18.14;nan;95241.78;5016425;28;20280;-63
2022/09/09 04:10:36;;;;;;;10.73;9.82;;;;;;;18.16;nan;95245.09;5015559;28;20202;-65
2022/09/09 04:13:02;;;;;;;12.00;10.88;;;;;;;18.29;nan;95240.03;5016610;28;20228;-64
2022/09/09 04:15:30;;;;;;;11.23;10.07;;;;;;;18.11;nan;95236.81;5016145;28;20323;-63
2022/09/09 04:17:56;;;;;;;11.77;10.63;;;;;;;18.14;nan;95236.63;5015825;28;20207;-63
2022/09/09 04:20:23;;;;;;;32.47;23.92;;;;;;;17.94;nan;95234.44;5014304;28;20311;-61
2022/09/09 04:22:50;;;;;;;18.83;16.85;;;;;;;18.26;nan;95229.94;5016227;28;20207;-64
2022/09/09 04:25:17;;;;;;;15.52;12.00;;;;;;;18.27;nan;95234.97;5016137;28;20203;-63
2022/09/09 04:27:45;;;;;;;14.77;11.48;;;;;;;18.53;nan;95241.09;5016699;28;20328;-64
2022/09/09 04:30:13;;;;;;;16.88;11.18;;;;;;;18.60;nan;95238.97;5013788;28;20211;-62
2022/09/09 04:32:39;;;;;;;17.83;10.68;;;;;;;18.45;nan;95245.88;5016163;28;20233;-65
2022/09/09 04:35:07;;;;;;;19.15;13.68;;;;;;;18.21;nan;95243.06;5015688;28;20213;-64
2022/09/09 04:37:33;;;;;;;43.65;30.00;;;;;;;18.18;nan;95248.38;5016639;28;20256;-63
2022/09/09 04:40:01;;;;;;;18.15;15.98;;;;;;;18.54;nan;95241.94;5015960;28;22442;-63
2022/09/09 04:42:28;;;;;;;20.50;11.98;;;;;;;18.63;nan;95243.94;5014397;28;20795;-63
2022/09/09 04:44:57;;;;;;;14.88;11.68;;;;;;;18.54;nan;95242.75;5015694;28;20288;-64
2022/09/09 04:47:24;;;;;;;12.77;11.82;;;;;;;18.52;nan;95246.34;5015698;28;20292;-65
2022/09/09 04:49:51;;;;;;;13.57;11.40;;;;;;;18.61;nan;95241.47;5014787;28;20292;-64
2022/09/09 04:52:18;;;;;;;33.72;26.38;;;;;;;18.93;nan;95229.16;5017101;28;20311;-65
2022/09/09 04:54:45;;;;;;;19.67;13.75;;;;;;;19.08;nan;95234.22;5014649;28;20244;-63
2022/09/09 04:57:12;;;;;;;16.10;12.98;;;;;;;19.24;nan;95233.16;5012455;28;20601;-63
2022/09/09 04:59:39;;;;;;;18.45;13.35;;;;;;;19.24;nan;95234.91;5014890;28;20282;-62
2022/09/09 05:02:07;;;;;;;20.77;13.70;;;;;;;19.42;nan;95232.88;5015777;28;20302;-65
2022/09/09 05:04:34;;;;;;;17.30;12.98;;;;;;;19.38;nan;95227.94;5014244;28;20319;-62
2022/09/09 05:07:01;;;;;;;24.70;13.95;;;;;;;19.41;nan;95219.19;5013378;28;20331;-64
2022/09/09 05:09:28;;;;;;;13.50;11.18;;;;;;;19.98;nan;95217.06;5014790;28;20802;-62
2022/09/09 05:11:55;;;;;;;19.23;12.35;;;;;;;19.85;nan;95215.41;5014025;28;20230;-61
2022/09/09 05:14:22;;;;;;;17.40;12.63;;;;;;;20.41;nan;95233.97;5014774;28;20272;-65
2022/09/09 05:16:49;;;;;;;17.65;13.00;;;;;;;21.06;nan;95230.13;5015941;28;20207;-63
2022/09/09 05:19:19;;;;;;;15.13;12.73;;;;;;;21.87;nan;95226.75;5014834;28;20258;-64
2022/09/09 05:21:46;;;;;;;15.18;11.60;;;;;;;23.20;nan;95219.00;5015003;28;20365;-63
2022/09/09 05:24:13;;;;;;;11.73;10.52;;;;;;;24.55;nan;95212.84;5013275;28;20265;-65
2022/09/09 05:26:40;;;;;;;11.15;9.98;;;;;;;25.98;nan;95204.44;5014916;28;20708;-65
2022/09/09 05:29:08;;;;;;;13.70;10.30;;;;;;;26.53;nan;95209.69;5017218;28;20230;-65
2022/09/09 05:31:34;;;;;;;11.32;8.50;;;;;;;28.79;nan;95209.84;5014168;28;20211;-63
2022/09/09 05:34:01;;;;;;;11.43;9.88;;;;;;;30.50;nan;95208.06;5013489;28;20203;-64
2022/09/09 05:36:29;;;;;;;12.13;8.95;;;;;;;31.89;nan;95205.47;5012359;28;20227;-63
2022/09/09 05:38:56;;;;;;;10.95;9.60;;;;;;;32.50;nan;95203.53;5014906;28;20269;-65
2022/09/09 05:41:23;;;;;;;10.57;9.55;;;;;;;32.91;nan;95207.31;5015513;28;20207;-63
2022/09/09 05:43:50;;;;;;;12.02;9.27;;;;;;;34.01;nan;95205.16;5014383;28;20234;-64
2022/09/09 05:46:19;;;;;;;13.20;9.30;;;;;;;34.67;nan;95204.72;5012666;28;20991;-65
2022/09/09 05:48:49;;;;;;;14.05;9.50;;;;;;;34.53;nan;95208.31;5013437;28;20828;-65
2022/09/09 05:51:18;;;;;;;11.45;9.57;;;;;;;34.79;nan;95211.13;5010748;28;20684;-66
2022/09/09 05:53:46;;;;;;;12.73;9.32;;;;;;;34.79;nan;95211.13;5014518;28;21344;-65
2022/09/09 05:56:15;;;;;;;19.77;9.45;;;;;;;34.84;nan;95208.72;5012981;28;20304;-66
2022/09/09 05:58:43;;;;;;;15.38;10.85;;;;;;;34.87;nan;95200.41;5015595;28;20263;-65
2022/09/09 06:01:13;;;;;;;18.08;10.27;;;;;;;35.12;nan;95203.31;5012698;28;20226;-65
2022/09/09 06:03:41;;;;;;;12.68;9.55;;;;;;;36.06;nan;95211.19;5014587;28;20207;-64
2022/09/09 06:06:09;;;;;;;11.50;9.13;;;;;;;36.71;nan;95217.38;5012684;28;20231;-65
2022/09/09 06:08:38;;;;;;;9.93;9.05;;;;;;;35.47;nan;95228.63;5016024;28;20227;-64
2022/09/09 06:11:08;;;;;;;13.00;11.02;;;;;;;35.13;nan;95213.69;5012694;28;20720;-65
2022/09/09 06:13:36;;;;;;;19.92;10.27;;;;;;;35.48;nan;95218.84;5014517;28;20669;-65
2022/09/09 06:16:04;;;;;;;14.98;10.15;;;;;;;35.43;nan;95213.34;5014510;28;20215;-65
2022/09/09 06:18:31;;;;;;;11.75;10.02;;;;;;;36.03;nan;95215.03;5014849;28;20205;-65
2022/09/09 06:21:00;;;;;;;12.75;9.75;;;;;;;35.81;nan;95224.22;5014641;28;20199;-66
2022/09/09 06:23:28;;;;;;;11.05;9.98;;;;;;;34.65;nan;95217.31;5014069;28;20290;-65
2022/09/09 06:26:05;;;;;;;15.93;10.27;;;;;;;34.78;nan;95212.09;5013611;28;20495;-64
2022/09/09 06:28:33;;;;;;;12.32;10.07;;;;;;;34.64;nan;95219.16;5011583;28;20230;-64
2022/09/09 06:31:00;;;;;;;12.27;8.55;;;;;;;35.46;nan;95220.88;5011845;28;20210;-64
2022/09/09 06:33:31;;;;;;;11.82;8.93;;;;;;;35.32;nan;95216.59;5012876;28;20207;-65
2022/09/09 06:35:58;;;;;;;11.70;9.00;;;;;;;35.50;nan;95206.25;5012968;28;20203;-65
2022/09/09 06:38:25;;;;;;;10.30;9.32;;;;;;;36.01;nan;95198.56;5013271;28;20675;-64
2022/09/09 06:40:54;;;;;;;24.08;9.82;;;;;;;35.99;nan;95207.72;5012560;28;20672;-62
2022/09/09 06:43:21;;;;;;;11.32;9.38;;;;;;;35.91;nan;95197.34;5012448;28;20203;-65
2022/09/09 06:45:55;;;;;;;17.05;10.45;;;;;;;35.30;nan;95200.13;5011864;28;20726;-65
2022/09/09 06:48:22;;;;;;;11.95;9.10;;;;;;;35.33;nan;95194.44;5013804;28;20282;-66
2022/09/09 06:50:50;;;;;;;15.07;9.02;;;;;;;36.17;nan;95207.06;5012766;28;20202;-66
2022/09/09 06:53:18;;;;;;;15.05;9.43;;;;;;;36.84;nan;95213.91;5012658;28;20210;-64
2022/09/09 06:55:46;;;;;;;9.63;8.65;;;;;;;37.75;nan;95215.25;5013023;28;20211;-65
2022/09/09 06:58:13;;;;;;;9.63;8.70;;;;;;;37.16;nan;95220.06;5012456;28;20210;-63
2022/09/09 07:00:39;;;;;;;9.13;7.85;;;;;;;38.28;nan;95214.81;5013134;28;20234;-64
2022/09/09 07:03:08;;;;;;;10.98;8.52;;;;;;;37.70;nan;95219.56;5013264;28;20231;-64
2022/09/09 07:05:34;;;;;;;18.35;10.05;;;;;;;36.89;nan;95222.00;5014426;28;20245;-65
2022/09/09 07:08:02;;;;;;;20.17;10.20;;;;;;;35.34;nan;95219.88;5012692;28;20220;-65
2022/09/09 07:10:28;;;;;;;16.90;8.45;;;;;;;34.45;nan;95218.03;5012708;28;20715;-62
2022/09/09 07:12:55;;;;;;;11.60;7.63;;;;;;;35.18;nan;95212.25;5009911;28;20936;-65
2022/09/09 07:15:22;;;;;;;13.20;9.05;;;;;;;35.48;nan;95210.94;5013091;28;20287;-64
2022/09/09 07:17:49;;;;;;;14.32;8.80;;;;;;;34.83;nan;95212.38;5014192;28;20335;-65
2022/09/09 07:20:20;;;;;;;9.88;8.23;;;;;;;32.56;nan;95208.06;5013950;28;20203;-67
2022/09/09 07:22:46;;;;;;;10.73;7.38;;;;;;;33.29;nan;95210.59;5012173;28;20239;-64
2022/09/09 07:25:14;;;;;;;7.75;7.00;;;;;;;33.60;nan;95202.38;5013359;28;20376;-63
2022/09/09 07:27:40;;;;;;;8.30;7.07;;;;;;;32.44;nan;95210.31;5012673;28;20290;-65
2022/09/09 07:30:08;;;;;;;12.93;8.27;;;;;;;31.57;nan;95196.84;5011786;28;20230;-65
2022/09/09 07:32:35;;;;;;;6.95;5.88;;;;;;;29.86;nan;95209.84;5012824;28;20226;-64
2022/09/09 07:35:02;;;;;;;6.90;5.30;;;;;;;30.95;nan;95198.69;5012193;28;20264;-62
2022/09/09 07:37:30;;;;;;;6.13;5.57;;;;;;;30.72;nan;95201.28;5013038;28;20203;-64
2022/09/09 07:39:57;;;;;;;10.30;5.03;;;;;;;31.13;nan;95203.72;5012517;28;20199;-64
2022/09/09 07:42:24;;;;;;;6.50;5.25;;;;;;;31.52;nan;95208.84;5012085;28;22145;-64
2022/09/09 07:44:54;;;;;;;6.03;5.60;;;;;;;31.77;nan;95213.78;5012403;28;20252;-65
2022/09/09 07:47:21;;;;;;;5.75;5.35;;;;;;;32.23;nan;95213.69;5013314;28;20240;-64
2022/09/09 07:49:49;;;;;;;6.93;5.63;;;;;;;33.59;nan;95208.66;5010810;28;20234;-62
2022/09/09 07:52:16;;;;;;;7.82;6.00;;;;;;;33.37;nan;95212.28;5013171;28;21293;-64
2022/09/09 07:54:45;;;;;;;7.38;5.30;;;;;;;33.42;nan;95208.06;5015205;28;20217;-63
2022/09/09 07:57:12;;;;;;;7.00;5.32;;;;;;;32.95;nan;95213.00;5016666;28;20580;-65
2022/09/09 07:59:39;;;;;;;7.78;5.43;;;;;;;32.99;nan;95209.81;5015404;28;20483;-61
2022/09/09 08:02:06;;;;;;;14.15;6.50;;;;;;;32.17;nan;95205.69;5014686;28;20549;-65
2022/09/09 08:04:33;;;;;;;7.57;6.80;;;;;;;31.79;nan;95201.28;5014110;28;20231;-64
2022/09/09 08:07:02;;;;;;;9.65;6.00;;;;;;;31.55;nan;95204.06;5013279;28;20614;-65
2022/09/09 08:09:32;;;;;;;6.60;6.00;;;;;;;30.88;nan;95211.72;5015749;28;20230;-64
2022/09/09 08:12:00;;;;;;;9.27;6.63;;;;;;;30.23;nan;95208.50;5015350;28;20207;-64
2022/09/09 08:14:28;;;;;;;13.32;6.07;;;;;;;29.81;nan;95204.28;5014022;28;20440;-63
2022/09/09 08:16:56;;;;;;;13.75;6.55;;;;;;;30.00;nan;95205.75;5015624;28;20211;-63
2022/09/09 08:19:23;;;;;;;7.32;5.85;;;;;;;30.13;nan;95200.00;5014763;28;20278;-63
2022/09/09 08:21:50;;;;;;;8.82;5.85;;;;;;;30.42;nan;95206.31;5013813;28;20773;-67
2022/09/09 08:24:16;;;;;;;8.90;6.32;;;;;;;30.61;nan;95202.50;5015278;28;20953;-64
2022/09/09 08:26:47;;;;;;;9.98;6.18;;;;;;;30.56;nan;95202.19;5014296;28;20213;-63
2022/09/09 08:29:15;;;;;;;6.78;6.25;;;;;;;30.25;nan;95199.47;5014079;28;20225;-63
2022/09/09 08:31:44;;;;;;;6.78;6.00;;;;;;;29.72;nan;95197.41;5015435;28;20210;-64
2022/09/09 08:34:10;;;;;;;11.57;5.68;;;;;;;29.36;nan;95192.50;5017582;28;20218;-64
2022/09/09 08:36:40;;;;;;;9.45;6.50;;;;;;;29.04;nan;95197.69;5016885;28;21173;-65
2022/09/09 08:39:08;;;;;;;6.82;5.15;;;;;;;28.71;nan;95204.59;5014847;28;21707;-65
2022/09/09 08:41:44;;;;;;;7.05;5.25;;;;;;;28.66;nan;95197.25;5014814;28;20590;-63
2022/09/09 08:44:21;;;;;;;9.23;6.30;;;;;;;28.27;nan;95194.28;5015961;28;20256;-64
2022/09/09 08:46:55;;;;;;;8.63;6.18;;;;;;;27.92;nan;95199.63;5016290;28;20598;-63
2022/09/09 08:49:48;;;;;;;8.00;5.93;;;;;;;27.90;nan;95194.56;5014428;28;20226;-63
2022/09/09 08:52:22;;;;;;;8.88;5.47;;;;;;;28.54;nan;95197.66;5013340;28;20665;-61
2022/09/09 08:54:50;;;;;;;11.77;5.43;;;;;;;28.55;nan;95196.69;5015181;28;20238;-65
2022/09/09 08:57:26;;;;;;;6.20;5.70;;;;;;;29.01;nan;95196.19;5014865;28;21874;-63
2022/09/09 08:59:57;;;;;;;6.22;5.68;;;;;;;29.10;nan;95187.41;5016283;28;20238;-63
2022/09/09 09:02:31;;;;;;;14.57;6.13;;;;;;;29.30;nan;95187.91;5015034;28;20298;-64
2022/09/09 09:05:14;;;;;;;8.10;5.28;;;;;;;28.86;nan;95189.97;5017307;28;20198;-64
2022/09/09 09:07:55;;;;;;;8.15;6.78;;;;;;;28.94;nan;95197.84;5014015;28;20289;-64
2022/09/09 09:10:36;;;;;;;7.20;5.78;;;;;;;29.18;nan;95191.00;5013324;28;20231;-63
2022/09/09 09:13:04;;;;;;;8.90;5.55;;;;;;;29.44;nan;95179.44;5013495;28;20207;-61
2022/09/09 09:15:38;;;;;;;7.65;5.35;;;;;;;29.77;nan;95188.06;5013722;28;21145;-63
2022/09/09 09:18:06;;;;;;;13.07;6.30;;;;;;;29.73;nan;95184.16;5015551;28;20213;-64
2022/09/09 09:20:41;;;;;;;7.30;5.55;;;;;;;29.43;nan;95172.56;5012379;28;20729;-63
2022/09/09 09:23:17;;;;;;;6.15;5.75;;;;;;;28.56;nan;95185.25;5015841;28;20210;-65
2022/09/09 09:25:45;;;;;;;6.50;6.00;;;;;;;27.95;nan;95178.44;5014543;28;20203;-66
2022/09/09 09:28:17;;;;;;;6.47;5.82;;;;;;;27.59;nan;95185.53;5014936;28;20360;-64
2022/09/09 09:30:52;;;;;;;8.65;6.00;;;;;;;27.51;nan;95186.25;5012283;28;20214;-63
2022/09/09 09:33:24;;;;;;;8.13;6.28;;;;;;;27.24;nan;95191.56;5014296;28;20251;-64
2022/09/09 09:35:51;;;;;;;10.95;5.90;;;;;;;26.74;nan;95186.81;5013533;28;20648;-63
2022/09/09 09:38:22;;;;;;;6.07;5.57;;;;;;;27.10;nan;95183.31;5012780;28;20207;-65
2022/09/09 09:40:57;;;;;;;7.07;6.38;;;;;;;27.14;nan;95176.00;5011779;28;20285;-63
2022/09/09 09:43:27;;;;;;;13.98;7.22;;;;;;;27.36;nan;95172.91;5011544;28;20199;-65
2022/09/09 09:45:57;;;;;;;12.05;8.75;;;;;;;27.64;nan;95176.28;5012584;28;20194;-64
2022/09/09 09:48:25;;;;;;;8.35;7.45;;;;;;;27.64;nan;95165.81;5011175;28;20565;-63
2022/09/09 09:50:54;;;;;;;10.85;6.65;;;;;;;27.58;nan;95163.81;5012678;28;20818;-63
2022/09/09 09:53:24;;;;;;;17.33;8.15;;;;;;;27.59;nan;95168.06;5013073;28;20213;-64
2022/09/09 09:55:57;;;;;;;11.95;7.97;;;;;;;27.53;nan;95166.03;5011627;28;21434;-65
2022/09/09 09:58:26;;;;;;;13.90;6.90;;;;;;;27.34;nan;95158.38;5013096;28;20207;-65
2022/09/09 10:00:55;;;;;;;9.52;6.18;;;;;;;27.31;nan;95154.28;5011807;28;20246;-65
2022/09/09 10:03:26;;;;;;;11.80;6.80;;;;;;;26.97;nan;95150.75;5013118;28;20298;-67
2022/09/09 10:05:53;;;;;;;6.97;5.60;;;;;;;26.84;nan;95156.28;5011416;28;20237;-64
2022/09/09 10:08:20;;;;;;;7.35;6.22;;;;;;;26.76;nan;95164.00;5010124;28;20211;-65
2022/09/09 10:11:16;;;;;;;8.75;7.00;;;;;;;26.91;nan;95167.75;5014374;28;20230;-64
2022/09/09 10:13:54;;;;;;;9.50;6.55;;;;;;;26.66;nan;95176.31;5013162;28;20673;-64
2022/09/09 10:16:36;;;;;;;10.95;6.72;;;;;;;26.59;nan;95172.63;5013282;28;20880;-65
2022/09/09 10:19:06;;;;;;;11.20;7.30;;;;;;;26.60;nan;95169.88;5012768;28;20211;-64
2022/09/09 10:21:57;;;;;;;13.02;7.38;;;;;;;26.43;nan;95173.28;5013730;28;21489;-66
2022/09/09 10:24:52;;;;;;;7.88;6.82;;;;;;;26.35;nan;95173.19;5011176;28;20258;-65
2022/09/09 10:27:29;;;;;;;14.55;7.13;;;;;;;26.25;nan;95174.97;5012508;28;20672;-65
2022/09/09 10:30:13;;;;;;;13.57;9.43;;;;;;;26.30;nan;95173.59;5011976;28;20214;-64
2022/09/09 10:32:50;;;;;;;12.18;7.45;;;;;;;26.35;nan;95174.00;5012953;28;20203;-63
2022/09/09 10:35:31;;;;;;;12.43;7.75;;;;;;;26.37;nan;95173.84;5013731;28;20237;-64
2022/09/09 10:38:15;;;;;;;7.47;6.72;;;;;;;26.31;nan;95175.25;5013944;28;20199;-63
2022/09/09 10:41:04;;;;;;;14.15;7.97;;;;;;;26.31;nan;95185.66;5012431;28;20562;-63
2022/09/09 10:43:45;;;;;;;19.38;10.38;;;;;;;26.36;nan;95173.03;5013392;28;20700;-63
2022/09/09 10:46:18;;;;;;;19.58;10.05;;;;;;;26.42;nan;95182.88;5011271;28;20302;-64
2022/09/09 10:49:03;;;;;;;10.82;8.20;;;;;;;26.42;nan;95177.66;5012415;28;20214;-62
2022/09/09 10:51:37;;;;;;;10.20;8.18;;;;;;;26.36;nan;95175.63;5012589;28;20218;-63
2022/09/09 10:54:26;;;;;;;13.98;7.18;;;;;;;26.28;nan;95188.53;5012720;28;20202;-65
2022/09/09 10:56:59;;;;;;;10.48;7.35;;;;;;;26.31;nan;95185.66;5011483;28;20292;-63
2022/09/09 10:59:30;;;;;;;11.70;8.20;;;;;;;26.33;nan;95175.91;5012616;28;20223;-64
2022/09/09 11:02:03;;;;;;;14.25;7.60;;;;;;;26.36;nan;95175.63;5014337;28;20631;-64
2022/09/09 11:04:39;;;;;;;10.98;7.55;;;;;;;26.42;nan;95177.66;5013244;28;20261;-63
2022/09/09 11:07:11;;;;;;;11.02;7.63;;;;;;;26.15;nan;95169.81;5012302;28;20230;-62
2022/09/09 11:09:42;;;;;;;13.30;7.60;;;;;;;26.07;nan;95173.13;5012195;28;20695;-65
2022/09/09 11:12:16;;;;;;;8.90;8.00;;;;;;;26.14;nan;95173.38;5012734;28;20202;-65
2022/09/09 11:14:46;;;;;;;9.02;7.30;;;;;;;26.20;nan;95169.38;5010891;28;20707;-63
2022/09/09 11:17:17;;;;;;;12.95;7.53;;;;;;;26.26;nan;95171.38;5012718;28;20199;-64
2022/09/09 11:19:45;;;;;;;9.57;7.50;;;;;;;26.30;nan;95157.97;5012530;28;20549;-64
2022/09/09 11:22:21;;;;;;;7.75;6.95;;;;;;;26.32;nan;95160.44;5011907;28;20195;-64
2022/09/09 11:24:52;;;;;;;11.07;6.93;;;;;;;26.31;nan;95162.22;5012924;28;20213;-63
2022/09/09 11:27:25;;;;;;;15.70;7.53;;;;;;;26.47;nan;95153.78;5012550;28;21344;-65
2022/09/09 11:30:07;;;;;;;10.40;7.80;;;;;;;26.44;nan;95148.88;5013384;28;20418;-63
2022/09/09 11:33:03;;;;;;;11.77;6.78;;;;;;;26.38;nan;95145.03;5017035;28;20206;-63
2022/09/09 11:35:47;;;;;;;10.88;6.97;;;;;;;26.41;nan;95129.13;5015966;28;20294;-65
2022/09/09 11:38:27;;;;;;;15.85;8.52;;;;;;;26.53;nan;95121.09;5015783;28;20213;-63
2022/09/09 11:41:00;;;;;;;11.93;6.65;;;;;;;26.62;nan;95115.00;5015920;28;20237;-65
2022/09/09 11:43:30;;;;;;;14.55;7.72;;;;;;;26.63;nan;95108.81;5017221;28;20203;-63
2022/09/09 11:46:00;;;;;;;8.18;7.25;;;;;;;26.75;nan;95100.63;5016722;28;20272;-65
2022/09/09 11:48:32;;;;;;;16.00;8.57;;;;;;;26.78;nan;95089.88;5015981;28;20195;-64
2022/09/09 11:51:04;;;;;;;17.98;10.38;;;;;;;26.87;nan;95084.75;5015785;28;20218;-65
2022/09/09 11:53:32;;;;;;;11.07;7.88;;;;;;;26.96;nan;95089.94;5017379;28;20661;-66
2022/09/09 11:56:27;;;;;;;7.78;6.95;;;;;;;27.07;nan;95089.69;5016720;28;20203;-65
2022/09/09 11:59:00;;;;;;;7.65;6.93;;;;;;;27.20;nan;95094.53;5013908;28;20206;-65
2022/09/09 12:01:35;;;;;;;8.93;8.05;;;;;;;27.46;nan;95093.72;5018564;28;20192;-62